createdAt,value
2017-04-08T00:00:19.373Z,23.60
2017-04-08T00:01:17.904Z,24.00
2017-04-08T00:02:15.717Z,26.04
2017-04-08T00:03:13.476Z,24.16
2017-04-08T00:04:11.268Z,24.84
2017-04-08T00:05:09.111Z,24.61
2017-04-08T00:06:06.937Z,23.41
2017-04-08T00:07:04.737Z,25.59
2017-04-08T00:08:03.221Z,24.19
2017-04-08T00:09:01.107Z,24.06
2017-04-08T00:09:59.740Z,22.46
2017-04-08T00:10:57.573Z,25.63
2017-04-08T00:11:55.353Z,24.70
2017-04-08T00:12:53.147Z,24.83
2017-04-08T00:13:50.937Z,24.40
2017-04-08T00:14:48.710Z,24.69
2017-04-08T00:15:46.486Z,26.34
2017-04-08T00:16:44.944Z,25.13
2017-04-08T00:17:42.809Z,23.66
2017-04-08T00:18:41.277Z,23.81
2017-04-08T00:19:39.058Z,24.19
2017-04-08T00:20:37.595Z,22.33
2017-04-08T00:21:35.393Z,24.44
2017-04-08T00:22:33.162Z,22.81
2017-04-08T00:23:30.943Z,23.14
2017-04-08T00:24:28.753Z,26.01
2017-04-08T00:25:26.537Z,24.96
2017-04-08T00:26:24.343Z,25.94
2017-04-08T00:27:22.129Z,27.49
2017-04-08T00:28:19.905Z,23.63
2017-04-08T00:29:17.733Z,25.23
2017-04-08T00:30:15.527Z,24.36
2017-04-08T00:31:13.306Z,25.33
2017-04-08T00:32:11.858Z,25.19
2017-04-08T00:33:09.627Z,25.47
2017-04-08T00:34:07.482Z,23.73
2017-04-08T00:35:05.268Z,26.40
2017-04-08T00:36:03.810Z,25.46
2017-04-08T00:37:02.365Z,23.44
2017-04-08T00:38:00.198Z,25.26
2017-04-08T00:38:57.999Z,23.76
2017-04-08T00:39:56.489Z,25.41
2017-04-08T00:40:54.307Z,23.49
2017-04-08T00:41:52.097Z,25.17
2017-04-08T00:42:49.893Z,23.53
2017-04-08T00:43:47.730Z,23.40
2017-04-08T00:44:45.523Z,24.21
2017-04-08T00:45:43.323Z,25.47
2017-04-08T00:46:41.891Z,25.67
2017-04-08T00:47:40.402Z,25.96
2017-04-08T00:48:38.167Z,25.16
2017-04-08T00:49:36.013Z,23.21
2017-04-08T00:50:33.809Z,22.03
2017-04-08T00:51:32.293Z,26.07
2017-04-08T00:52:30.809Z,26.11
2017-04-08T00:53:28.586Z,25.66
2017-04-08T00:54:27.080Z,24.31
2017-04-08T00:55:25.570Z,26.20
2017-04-08T00:56:24.101Z,24.49
2017-04-08T00:57:22.606Z,24.86
2017-04-08T00:58:21.174Z,26.16
2017-04-08T00:59:19.703Z,25.73
2017-04-08T01:00:22.133Z,25.16
2017-04-08T01:01:26.485Z,25.17
2017-04-08T01:02:24.253Z,25.61
2017-04-08T01:03:22.098Z,25.36
2017-04-08T01:04:19.902Z,24.99
2017-04-08T01:05:18.421Z,24.93
2017-04-08T01:06:16.277Z,24.04
2017-04-08T01:07:14.051Z,24.03
2017-04-08T01:08:11.842Z,24.01
2017-04-08T01:09:09.694Z,25.73
2017-04-08T01:10:08.206Z,27.06
2017-04-08T01:11:05.989Z,25.01
2017-04-08T01:12:03.777Z,27.79
2017-04-08T01:13:02.293Z,25.41
2017-04-08T01:14:00.061Z,25.13
2017-04-08T01:14:57.862Z,24.86
2017-04-08T01:15:55.646Z,25.30
2017-04-08T01:16:53.435Z,28.64
2017-04-08T01:17:51.948Z,25.69
2017-04-08T01:18:49.711Z,26.60
2017-04-08T01:19:47.493Z,27.73
2017-04-08T01:20:45.289Z,29.13
2017-04-08T01:21:43.821Z,28.16
2017-04-08T01:22:41.677Z,27.67
2017-04-08T01:23:40.141Z,26.46
2017-04-08T01:24:37.944Z,25.31
2017-04-08T01:25:35.753Z,27.73
2017-04-08T01:26:33.533Z,27.09
2017-04-08T01:27:31.329Z,25.84
2017-04-08T01:28:29.169Z,25.36
2017-04-08T01:29:26.941Z,26.73
2017-04-08T01:30:24.777Z,27.99
2017-04-08T01:31:23.297Z,26.80
2017-04-08T01:32:21.177Z,27.30
2017-04-08T01:33:19.680Z,26.40
2017-04-08T01:34:18.195Z,26.61
2017-04-08T01:35:16.008Z,26.51
2017-04-08T01:36:14.581Z,24.61
2017-04-08T01:37:13.105Z,27.13
2017-04-08T01:38:10.913Z,25.60
2017-04-08T01:39:09.432Z,26.59
2017-04-08T01:40:07.897Z,26.17
2017-04-08T01:41:05.674Z,26.33
2017-04-08T01:42:04.169Z,29.30
2017-04-08T01:43:02.717Z,26.36
2017-04-08T01:44:00.504Z,27.44
2017-04-08T01:44:59.033Z,25.41
2017-04-08T01:45:57.492Z,26.10
2017-04-08T01:46:55.292Z,28.13
2017-04-08T01:47:53.074Z,28.43
2017-04-08T01:48:51.411Z,29.07
2017-04-08T01:49:49.193Z,29.70
2017-04-08T01:50:46.985Z,30.93
2017-04-08T01:51:44.779Z,29.66
2017-04-08T01:52:43.281Z,28.21
2017-04-08T01:53:41.099Z,30.66
2017-04-08T01:54:39.641Z,29.21
2017-04-08T01:55:37.417Z,25.56
2017-04-08T01:56:35.218Z,26.24
2017-04-08T01:57:33.037Z,25.74
2017-04-08T01:58:31.585Z,27.86
2017-04-08T01:59:29.374Z,28.67
2017-04-08T02:00:27.225Z,27.41
2017-04-08T02:01:25.089Z,28.34
2017-04-08T02:02:23.006Z,26.09
2017-04-08T02:03:20.801Z,26.67
2017-04-08T02:04:18.617Z,26.19
2017-04-08T02:05:16.466Z,26.93
2017-04-08T02:06:14.281Z,26.83
2017-04-08T02:07:12.157Z,27.27
2017-04-08T02:08:10.009Z,27.00
2017-04-08T02:09:07.832Z,28.44
2017-04-08T02:10:06.422Z,29.06
2017-04-08T02:11:04.222Z,28.09
2017-04-08T02:12:02.057Z,30.04
2017-04-08T02:12:59.874Z,27.66
2017-04-08T02:13:57.689Z,28.79
2017-04-08T02:14:55.493Z,27.60
2017-04-08T02:15:53.321Z,29.34
2017-04-08T02:16:51.133Z,27.39
2017-04-08T02:17:48.955Z,27.73
2017-04-08T02:18:46.745Z,26.43
2017-04-08T02:19:44.602Z,25.86
2017-04-08T02:20:42.400Z,27.51
2017-04-08T02:21:40.862Z,25.74
2017-04-08T02:22:38.673Z,26.56
2017-04-08T02:23:36.478Z,27.04
2017-04-08T02:24:34.952Z,28.33
2017-04-08T02:25:32.749Z,26.77
2017-04-08T02:26:30.580Z,24.76
2017-04-08T02:27:28.358Z,24.73
2017-04-08T02:28:26.197Z,27.83
2017-04-08T02:29:24.769Z,26.31
2017-04-08T02:30:23.301Z,25.11
2017-04-08T02:31:21.094Z,24.04
2017-04-08T02:32:19.637Z,23.57
2017-04-08T02:33:17.437Z,25.16
2017-04-08T02:34:15.261Z,25.20
2017-04-08T02:35:13.176Z,23.61
2017-04-08T02:36:11.473Z,26.29
2017-04-08T02:37:09.265Z,24.47
2017-04-08T02:38:07.095Z,25.99
2017-04-08T02:39:05.670Z,26.20
2017-04-08T02:40:03.466Z,26.36
2017-04-08T02:41:01.302Z,26.76
2017-04-08T02:41:59.137Z,27.54
2017-04-08T02:42:56.966Z,27.06
2017-04-08T02:43:54.769Z,27.91
2017-04-08T02:44:52.565Z,26.13
2017-04-08T02:45:50.377Z,24.94
2017-04-08T02:46:48.189Z,24.63
2017-04-08T02:47:45.985Z,24.54
2017-04-08T02:48:43.807Z,26.30
2017-04-08T02:49:41.596Z,27.09
2017-04-08T02:50:39.377Z,26.04
2017-04-08T02:51:37.290Z,26.11
2017-04-08T02:52:35.121Z,27.93
2017-04-08T02:53:32.952Z,30.56
2017-04-08T02:54:30.777Z,26.17
2017-04-08T02:55:27.857Z,28.96
2017-04-08T02:56:25.673Z,27.94
2017-04-08T02:57:23.550Z,28.09
2017-04-08T02:58:21.357Z,29.20
2017-04-08T02:59:19.141Z,30.29
2017-04-08T03:00:16.994Z,28.54
2017-04-08T03:01:14.935Z,30.29
2017-04-08T03:02:12.733Z,28.26
2017-04-08T03:03:10.517Z,29.31
2017-04-08T03:04:08.315Z,31.20
2017-04-08T03:05:06.101Z,28.70
2017-04-08T03:06:03.857Z,29.49
2017-04-08T03:07:01.655Z,29.86
2017-04-08T03:08:00.186Z,28.66
2017-04-08T03:08:57.977Z,30.67
2017-04-08T03:09:55.845Z,30.47
2017-04-08T03:10:54.382Z,31.93
2017-04-08T03:11:52.191Z,32.44
2017-04-08T03:12:49.985Z,30.60
2017-04-08T03:13:47.766Z,31.76
2017-04-08T03:14:46.208Z,31.56
2017-04-08T03:15:44.034Z,32.81
2017-04-08T03:16:41.825Z,33.30
2017-04-08T03:17:39.625Z,31.94
2017-04-08T03:18:37.453Z,31.19
2017-04-08T03:19:35.247Z,30.11
2017-04-08T03:20:33.044Z,33.67
2017-04-08T03:21:30.815Z,30.71
2017-04-08T03:22:29.261Z,33.71
2017-04-08T03:23:27.053Z,31.31
2017-04-08T03:24:25.577Z,31.30
2017-04-08T03:25:23.353Z,33.86
2017-04-08T03:26:21.165Z,30.01
2017-04-08T03:27:18.942Z,33.77
2017-04-08T03:28:16.729Z,32.63
2017-04-08T03:29:15.181Z,31.79
2017-04-08T03:30:12.968Z,32.79
2017-04-08T03:31:11.487Z,32.16
2017-04-08T03:32:09.265Z,34.01
2017-04-08T03:33:07.059Z,31.59
2017-04-08T03:34:05.605Z,32.26
2017-04-08T03:35:03.404Z,32.47
2017-04-08T03:36:01.206Z,34.60
2017-04-08T03:36:58.980Z,33.83
2017-04-08T03:37:57.424Z,33.63
2017-04-08T03:38:55.236Z,34.74
2017-04-08T03:39:53.033Z,32.81
2017-04-08T03:40:50.788Z,32.07
2017-04-08T03:41:48.573Z,32.23
2017-04-08T03:42:47.101Z,31.90
2017-04-08T03:43:44.905Z,31.67
2017-04-08T03:44:42.718Z,31.83
2017-04-08T03:45:40.529Z,34.06
2017-04-08T03:46:39.061Z,31.99
2017-04-08T03:47:36.857Z,33.63
2017-04-08T03:48:35.386Z,29.74
2017-04-08T03:49:33.181Z,32.16
2017-04-08T03:50:31.708Z,31.57
2017-04-08T03:51:29.514Z,33.50
2017-04-08T03:52:27.285Z,32.97
2017-04-08T03:53:25.066Z,30.36
2017-04-08T03:54:22.850Z,30.77
2017-04-08T03:55:20.638Z,32.36
2017-04-08T03:56:18.421Z,31.79
2017-04-08T03:57:16.226Z,33.56
2017-04-08T03:58:14.068Z,30.46
2017-04-08T03:59:11.870Z,32.40
2017-04-08T04:00:09.683Z,29.97
2017-04-08T04:01:08.137Z,33.83
2017-04-08T04:02:05.953Z,31.10
2017-04-08T04:03:03.766Z,33.53
2017-04-08T04:04:02.314Z,31.34
2017-04-08T04:05:00.141Z,31.41
2017-04-08T04:05:57.917Z,32.27
2017-04-08T04:06:55.746Z,30.29
2017-04-08T04:07:53.533Z,32.49
2017-04-08T04:08:51.317Z,30.24
2017-04-08T04:09:49.115Z,32.03
2017-04-08T04:10:46.923Z,30.43
2017-04-08T04:11:44.733Z,30.06
2017-04-08T04:12:42.577Z,32.69
2017-04-08T04:13:40.378Z,29.63
2017-04-08T04:14:38.156Z,32.30
2017-04-08T04:15:36.722Z,30.66
2017-04-08T04:16:35.252Z,30.90
2017-04-08T04:17:33.048Z,28.83
2017-04-08T04:18:31.605Z,31.61
2017-04-08T04:19:29.405Z,29.89
2017-04-08T04:20:27.205Z,32.46
2017-04-08T04:21:25.034Z,30.21
2017-04-08T04:22:22.822Z,32.06
2017-04-08T04:23:20.640Z,29.64
2017-04-08T04:24:18.449Z,30.30
2017-04-08T04:25:17.105Z,30.20
2017-04-08T04:26:14.881Z,30.94
2017-04-08T04:27:13.418Z,30.00
2017-04-08T04:28:11.253Z,31.50
2017-04-08T04:29:09.065Z,31.03
2017-04-08T04:30:06.894Z,30.61
2017-04-08T04:31:04.698Z,34.76
2017-04-08T04:32:02.477Z,30.86
2017-04-08T04:33:00.309Z,35.93
2017-04-08T04:33:58.130Z,34.46
2017-04-08T04:34:56.600Z,34.37
2017-04-08T04:35:54.410Z,30.77
2017-04-08T04:36:52.210Z,29.37
2017-04-08T04:37:50.693Z,29.91
2017-04-08T04:38:49.213Z,30.99
2017-04-08T04:39:47.021Z,29.27
2017-04-08T04:40:45.572Z,30.81
2017-04-08T04:41:44.114Z,32.80
2017-04-08T04:42:41.897Z,32.34
2017-04-08T04:43:39.720Z,32.23
2017-04-08T04:44:37.540Z,31.53
2017-04-08T04:45:35.348Z,31.93
2017-04-08T04:46:33.165Z,33.06
2017-04-08T04:47:30.974Z,31.16
2017-04-08T04:48:28.761Z,30.41
2017-04-08T04:49:26.555Z,32.26
2017-04-08T04:50:24.345Z,29.04
2017-04-08T04:51:22.801Z,32.11
2017-04-08T04:52:20.617Z,31.44
2017-04-08T04:53:18.426Z,32.13
2017-04-08T04:54:16.888Z,32.91
2017-04-08T04:55:14.676Z,30.17
2017-04-08T04:56:12.485Z,29.86
2017-04-08T04:57:10.282Z,29.79
2017-04-08T04:58:08.085Z,30.81
2017-04-08T04:59:05.853Z,31.99
2017-04-08T05:00:03.641Z,31.43
2017-04-08T05:01:02.173Z,31.10
2017-04-08T05:01:59.977Z,29.40
2017-04-08T05:02:58.512Z,34.50
2017-04-08T05:03:56.305Z,31.34
2017-04-08T05:04:54.840Z,29.83
2017-04-08T05:05:52.630Z,29.00
2017-04-08T05:06:51.160Z,29.94
2017-04-08T05:07:48.942Z,28.21
2017-04-08T05:08:47.468Z,29.20
2017-04-08T05:09:45.254Z,29.26
2017-04-08T05:10:43.037Z,29.40
2017-04-08T05:11:41.577Z,30.46
2017-04-08T05:12:40.123Z,29.03
2017-04-08T05:13:37.932Z,28.21
2017-04-08T05:14:36.453Z,30.07
2017-04-08T05:15:34.253Z,30.84
2017-04-08T05:16:32.767Z,29.31
2017-04-08T05:17:30.541Z,29.79
2017-04-08T05:18:28.304Z,32.50
2017-04-08T05:19:26.101Z,30.71
2017-04-08T05:20:24.628Z,34.27
2017-04-08T05:21:22.494Z,32.66
2017-04-08T05:22:20.266Z,31.01
2017-04-08T05:23:18.774Z,29.17
2017-04-08T05:24:16.553Z,29.31
2017-04-08T05:25:15.365Z,29.97
2017-04-08T05:26:13.828Z,29.99
2017-04-08T05:27:11.625Z,29.30
2017-04-08T05:28:09.385Z,31.13
2017-04-08T05:29:07.149Z,32.36
2017-04-08T05:30:04.917Z,31.23
2017-04-08T05:31:02.710Z,29.74
2017-04-08T05:32:01.221Z,34.97
2017-04-08T05:32:58.977Z,32.71
2017-04-08T05:33:56.763Z,29.74
2017-04-08T05:34:54.537Z,29.14
2017-04-08T05:35:53.009Z,29.61
2017-04-08T05:36:50.773Z,28.84
2017-04-08T05:37:49.287Z,31.11
2017-04-08T05:38:47.074Z,28.40
2017-04-08T05:39:44.888Z,30.34
2017-04-08T05:40:42.673Z,32.69
2017-04-08T05:41:40.437Z,32.96
2017-04-08T05:42:38.209Z,32.57
2017-04-08T05:43:36.662Z,31.57
2017-04-08T05:44:34.442Z,29.30
2017-04-08T05:45:32.961Z,29.00
2017-04-08T05:46:30.743Z,28.69
2017-04-08T05:47:28.550Z,30.89
2017-04-08T05:48:26.345Z,31.84
2017-04-08T05:49:24.133Z,30.29
2017-04-08T05:50:21.900Z,28.33
2017-04-08T05:51:19.673Z,30.71
2017-04-08T05:52:17.677Z,32.77
2017-04-08T05:53:15.476Z,29.17
2017-04-08T05:54:13.313Z,29.94
2017-04-08T05:55:11.817Z,27.61
2017-04-08T05:56:09.630Z,28.17
2017-04-08T05:57:08.158Z,27.43
2017-04-08T05:58:06.010Z,30.47
2017-04-08T05:59:03.781Z,33.01
2017-04-08T06:00:01.614Z,29.14
2017-04-08T06:00:59.437Z,30.00
2017-04-08T06:01:58.043Z,31.01
2017-04-08T06:02:55.841Z,27.90
2017-04-08T06:03:53.614Z,29.67
2017-04-08T06:04:52.134Z,27.40
2017-04-08T06:05:50.657Z,31.27
2017-04-08T06:06:48.416Z,30.53
2017-04-08T06:07:46.933Z,30.60
2017-04-08T06:08:44.729Z,30.84
2017-04-08T06:09:42.504Z,30.81
2017-04-08T06:10:41.051Z,31.40
2017-04-08T06:11:38.835Z,34.84
2017-04-08T06:12:37.364Z,30.07
2017-04-08T06:13:35.147Z,30.80
2017-04-08T06:14:33.729Z,31.76
2017-04-08T06:15:31.525Z,31.70
2017-04-08T06:16:29.337Z,31.07
2017-04-08T06:17:27.872Z,31.41
2017-04-08T06:18:25.657Z,30.51
2017-04-08T06:19:23.441Z,31.66
2017-04-08T06:20:21.217Z,26.86
2017-04-08T06:21:19.006Z,30.20
2017-04-08T06:22:17.468Z,32.17
2017-04-08T06:23:15.241Z,29.89
2017-04-08T06:24:13.026Z,30.81
2017-04-08T06:25:10.828Z,29.49
2017-04-08T06:26:08.646Z,29.16
2017-04-08T06:27:06.460Z,31.31
2017-04-08T06:28:04.915Z,30.00
2017-04-08T06:29:02.694Z,29.31
2017-04-08T06:30:01.242Z,32.76
2017-04-08T06:30:59.021Z,28.84
2017-04-08T06:31:56.857Z,30.24
2017-04-08T06:32:55.437Z,29.99
2017-04-08T06:33:53.896Z,28.87
2017-04-08T06:34:51.677Z,30.73
2017-04-08T06:35:49.477Z,30.06
2017-04-08T06:36:47.364Z,32.69
2017-04-08T06:37:45.173Z,30.24
2017-04-08T06:38:42.956Z,32.07
2017-04-08T06:39:40.753Z,32.16
2017-04-08T06:40:39.306Z,31.11
2017-04-08T06:41:37.113Z,30.56
2017-04-08T06:42:34.934Z,32.87
2017-04-08T06:43:33.461Z,31.24
2017-04-08T06:44:31.306Z,32.33
2017-04-08T06:45:29.093Z,31.97
2017-04-08T06:46:26.905Z,31.67
2017-04-08T06:47:24.822Z,34.10
2017-04-08T06:48:22.601Z,32.23
2017-04-08T06:49:21.224Z,31.61
2017-04-08T06:50:19.777Z,32.57
2017-04-08T06:51:17.606Z,30.96
2017-04-08T06:52:16.192Z,30.77
2017-04-08T06:53:14.242Z,30.59
2017-04-08T06:54:12.070Z,33.66
2017-04-08T06:55:09.936Z,34.60
2017-04-08T06:56:07.753Z,31.87
2017-04-08T06:57:05.554Z,30.03
2017-04-08T06:58:03.389Z,30.36
2017-04-08T06:59:01.245Z,31.00
2017-04-08T06:59:59.705Z,29.69
2017-04-08T07:00:57.687Z,32.97
2017-04-08T07:01:55.484Z,31.63
2017-04-08T07:02:53.302Z,28.27
2017-04-08T07:03:51.108Z,30.67
2017-04-08T07:04:48.905Z,29.63
2017-04-08T07:05:46.727Z,30.86
2017-04-08T07:06:44.658Z,30.26
2017-04-08T07:07:42.477Z,26.50
2017-04-08T07:08:40.386Z,32.09
2017-04-08T07:09:38.181Z,29.51
2017-04-08T07:10:35.972Z,27.19
2017-04-08T07:11:33.813Z,29.14
2017-04-08T07:12:31.621Z,26.77
2017-04-08T07:13:29.412Z,27.31
2017-04-08T07:14:27.257Z,28.93
2017-04-08T07:15:25.080Z,27.30
2017-04-08T07:16:22.934Z,28.99
2017-04-08T07:17:20.721Z,28.67
2017-04-08T07:18:18.533Z,28.66
2017-04-08T07:19:16.365Z,29.51
2017-04-08T07:20:14.180Z,28.07
2017-04-08T07:21:12.649Z,26.94
2017-04-08T07:22:10.475Z,26.41
2017-04-08T07:23:08.352Z,27.53
2017-04-08T07:24:06.173Z,22.29
2017-04-08T07:25:03.981Z,27.66
2017-04-08T07:26:02.510Z,27.70
2017-04-08T07:27:00.313Z,26.70
2017-04-08T07:27:58.139Z,25.80
2017-04-08T07:28:55.937Z,27.40
2017-04-08T07:29:53.737Z,26.50
2017-04-08T07:30:51.591Z,25.37
2017-04-08T07:31:49.473Z,27.56
2017-04-08T07:32:47.339Z,27.24
2017-04-08T07:33:45.871Z,29.33
2017-04-08T07:34:43.685Z,26.74
2017-04-08T07:35:42.239Z,28.06
2017-04-08T07:36:40.709Z,26.31
2017-04-08T07:37:38.589Z,27.33
2017-04-08T07:38:36.534Z,26.84
2017-04-08T07:39:35.104Z,25.37
2017-04-08T07:40:33.577Z,27.87
2017-04-08T07:41:31.401Z,24.99
2017-04-08T07:42:29.217Z,25.57
2017-04-08T07:43:27.010Z,27.29
2017-04-08T07:44:25.759Z,25.94
2017-04-08T07:45:23.642Z,27.80
2017-04-08T07:46:21.490Z,26.19
2017-04-08T07:47:19.346Z,26.00
2017-04-08T07:48:17.145Z,25.36
2017-04-08T07:49:14.980Z,27.29
2017-04-08T07:50:12.871Z,25.53
2017-04-08T07:51:10.746Z,25.36
2017-04-08T07:52:08.555Z,26.51
2017-04-08T07:53:06.395Z,27.01
2017-04-08T07:54:04.189Z,26.51
2017-04-08T07:55:02.748Z,24.26
2017-04-08T07:56:00.677Z,17.23
2017-04-08T07:56:58.595Z,22.37
2017-04-08T07:57:56.417Z,19.61
2017-04-08T07:58:54.248Z,23.00
2017-04-08T07:59:52.063Z,20.19
2017-04-08T08:00:50.030Z,24.73
2017-04-08T08:01:47.891Z,15.63
2017-04-08T08:02:45.798Z,23.64
2017-04-08T08:03:44.369Z,24.79
2017-04-08T08:04:42.164Z,16.81
2017-04-08T08:05:39.945Z,16.93
2017-04-08T08:06:37.729Z,26.43
2017-04-08T08:07:35.545Z,23.10
2017-04-08T08:08:33.629Z,24.00
2017-04-08T08:09:31.449Z,26.67
2017-04-08T08:10:29.257Z,20.50
2017-04-08T08:11:27.082Z,22.96
2017-04-08T08:12:25.066Z,26.97
2017-04-08T08:13:22.874Z,25.26
2017-04-08T08:14:20.698Z,21.43
2017-04-08T08:15:19.176Z,27.93
2017-04-08T08:16:17.743Z,27.51
2017-04-08T08:17:15.600Z,27.20
2017-04-08T08:18:14.181Z,26.49
2017-04-08T08:19:12.725Z,26.21
2017-04-08T08:20:10.526Z,27.64
2017-04-08T08:21:08.338Z,11.07
2017-04-08T08:22:06.118Z,13.86
2017-04-08T08:23:04.723Z,24.34
2017-04-08T08:24:02.545Z,24.23
2017-04-08T08:25:01.078Z,25.29
2017-04-08T08:25:58.902Z,25.66
2017-04-08T08:26:56.787Z,27.06
2017-04-08T08:27:54.585Z,27.14
2017-04-08T08:28:53.169Z,19.70
2017-04-08T08:29:51.720Z,26.67
2017-04-08T08:30:49.950Z,25.29
2017-04-08T08:31:47.749Z,26.26
2017-04-08T08:32:46.381Z,17.84
2017-04-08T08:33:44.183Z,29.41
2017-04-08T08:34:42.743Z,27.33
2017-04-08T08:35:40.557Z,27.26
2017-04-08T08:36:38.361Z,28.23
2017-04-08T08:37:36.901Z,23.89
2017-04-08T08:38:34.709Z,26.27
2017-04-08T08:39:32.514Z,14.69
2017-04-08T08:40:30.326Z,23.80
2017-04-08T08:41:28.112Z,18.89
2017-04-08T08:42:25.917Z,24.23
2017-04-08T08:43:24.483Z,17.36
2017-04-08T08:44:23.039Z,22.80
2017-04-08T08:45:20.816Z,22.43
2017-04-08T08:46:19.361Z,23.91
2017-04-08T08:47:17.163Z,21.56
2017-04-08T08:48:14.947Z,16.93
2017-04-08T08:49:12.754Z,19.01
2017-04-08T08:50:10.552Z,19.59
2017-04-08T08:51:08.353Z,20.06
2017-04-08T08:52:06.202Z,17.01
2017-04-08T08:53:04.676Z,18.46
2017-04-08T08:54:02.473Z,19.70
2017-04-08T08:55:00.277Z,18.73
2017-04-08T08:55:58.754Z,16.56
2017-04-08T08:56:56.541Z,19.61
2017-04-08T08:57:55.123Z,20.30
2017-04-08T08:58:52.940Z,19.59
2017-04-08T08:59:51.384Z,20.99
2017-04-08T09:00:49.185Z,23.21
2017-04-08T09:01:47.751Z,22.23
2017-04-08T09:02:46.325Z,23.76
2017-04-08T09:03:44.129Z,23.60
2017-04-08T09:04:41.913Z,21.84
2017-04-08T09:05:39.690Z,21.14
2017-04-08T09:06:38.246Z,12.83
2017-04-08T09:07:36.022Z,19.99
2017-04-08T09:08:34.574Z,21.14
2017-04-08T09:09:33.016Z,20.24
2017-04-08T09:10:30.785Z,18.30
2017-04-08T09:11:28.549Z,20.03
2017-04-08T09:12:26.997Z,20.54
2017-04-08T09:13:24.940Z,20.24
2017-04-08T09:14:22.751Z,19.10
2017-04-08T09:15:21.278Z,19.37
2017-04-08T09:16:19.083Z,19.60
2017-04-08T09:17:16.877Z,18.03
2017-04-08T09:18:14.646Z,18.99
2017-04-08T09:19:12.426Z,20.59
2017-04-08T09:20:10.222Z,20.40
2017-04-08T09:21:07.994Z,17.47
2017-04-08T09:22:05.813Z,18.84
2017-04-08T09:23:04.362Z,17.23
2017-04-08T09:24:02.181Z,16.14
2017-04-08T09:24:59.946Z,16.59
2017-04-08T09:25:57.725Z,18.46
2017-04-08T09:26:55.527Z,17.94
2017-04-08T09:27:53.333Z,17.89
2017-04-08T09:28:51.828Z,18.51
2017-04-08T09:29:50.357Z,14.79
2017-04-08T09:30:48.148Z,18.70
2017-04-08T09:31:46.679Z,20.33
2017-04-08T09:32:44.484Z,15.94
2017-04-08T09:33:42.336Z,18.59
2017-04-08T09:34:40.870Z,18.54
2017-04-08T09:35:38.638Z,19.89
2017-04-08T09:36:36.451Z,16.20
2017-04-08T09:37:34.230Z,14.10
2017-04-08T09:38:32.038Z,19.50
2017-04-08T09:39:29.825Z,13.86
2017-04-08T09:40:27.596Z,12.51
2017-04-08T09:41:25.409Z,18.40
2017-04-08T09:42:23.183Z,13.69
2017-04-08T09:43:21.030Z,14.94
2017-04-08T09:44:18.857Z,19.31
2017-04-08T09:45:16.665Z,19.86
2017-04-08T09:46:14.441Z,15.01
2017-04-08T09:47:12.239Z,13.93
2017-04-08T09:48:10.017Z,21.30
2017-04-08T09:49:07.821Z,11.04
2017-04-08T09:50:06.369Z,19.09
2017-04-08T09:51:04.173Z,20.07
2017-04-08T09:52:01.968Z,19.90
2017-04-08T09:52:59.789Z,17.47
2017-04-08T09:53:57.577Z,18.09
2017-04-08T09:54:55.391Z,16.59
2017-04-08T09:55:53.929Z,17.61
2017-04-08T09:56:52.377Z,20.30
2017-04-08T09:57:50.328Z,14.83
2017-04-08T09:58:48.146Z,19.19
2017-04-08T09:59:46.006Z,15.99
2017-04-08T10:00:43.817Z,20.34
2017-04-08T10:01:41.601Z,19.70
2017-04-08T10:02:40.129Z,19.67
2017-04-08T10:03:37.944Z,19.33
2017-04-08T10:04:35.742Z,20.31
2017-04-08T10:05:33.525Z,21.10
2017-04-08T10:06:31.978Z,21.23
2017-04-08T10:07:29.782Z,20.30
2017-04-08T10:08:27.566Z,20.29
2017-04-08T10:09:25.421Z,19.44
2017-04-08T10:10:23.203Z,21.63
2017-04-08T10:11:21.014Z,20.16
2017-04-08T10:12:18.840Z,13.13
2017-04-08T10:13:17.383Z,18.49
2017-04-08T10:14:15.201Z,18.34
2017-04-08T10:15:13.021Z,17.16
2017-04-08T10:16:10.870Z,18.69
2017-04-08T10:17:09.323Z,20.10
2017-04-08T10:18:07.138Z,20.26
2017-04-08T10:19:04.974Z,20.39
2017-04-08T10:20:02.828Z,18.00
2017-04-08T10:21:01.384Z,10.19
2017-04-08T10:21:59.204Z,18.23
2017-04-08T10:22:57.020Z,11.23
2017-04-08T10:23:54.852Z,17.47
2017-04-08T10:24:53.410Z,13.10
2017-04-08T10:25:51.234Z,11.81
2017-04-08T10:26:49.061Z,15.60
2017-04-08T10:27:47.021Z,7.26
2017-04-08T10:28:44.793Z,19.20
2017-04-08T10:29:42.621Z,9.94
2017-04-08T10:30:40.466Z,16.31
2017-04-08T10:31:38.310Z,17.54
2017-04-08T10:32:36.756Z,15.49
2017-04-08T10:33:34.565Z,9.69
2017-04-08T10:34:32.421Z,10.69
2017-04-08T10:35:30.266Z,15.44
2017-04-08T10:36:28.851Z,8.21
2017-04-08T10:37:26.637Z,17.71
2017-04-08T10:38:24.475Z,18.06
2017-04-08T10:39:22.320Z,16.99
2017-04-08T10:40:20.124Z,11.70
2017-04-08T10:41:17.989Z,17.24
2017-04-08T10:42:15.833Z,13.20
2017-04-08T10:43:13.608Z,17.49
2017-04-08T10:44:12.074Z,17.26
2017-04-08T10:45:09.893Z,12.03
2017-04-08T10:46:07.710Z,11.16
2017-04-08T10:47:05.498Z,12.36
2017-04-08T10:48:03.353Z,6.09
2017-04-08T10:49:01.248Z,12.04
2017-04-08T10:49:59.049Z,16.03
2017-04-08T10:50:57.095Z,19.10
2017-04-08T10:51:54.957Z,16.37
2017-04-08T10:52:52.762Z,13.26
2017-04-08T10:53:51.437Z,16.90
2017-04-08T10:54:49.251Z,8.17
2017-04-08T10:55:47.089Z,18.09
2017-04-08T10:56:44.941Z,11.47
2017-04-08T10:57:43.498Z,17.43
2017-04-08T10:58:42.053Z,18.63
2017-04-08T10:59:39.867Z,17.79
2017-04-08T11:00:37.709Z,17.33
2017-04-08T11:01:36.253Z,18.70
2017-04-08T11:02:34.149Z,15.81
2017-04-08T11:03:31.921Z,10.96
2017-04-08T11:04:29.701Z,14.09
2017-04-08T11:05:27.474Z,12.03
2017-04-08T11:06:25.280Z,16.36
2017-04-08T11:07:23.089Z,6.61
2017-04-08T11:08:20.885Z,6.34
2017-04-08T11:09:18.700Z,10.71
2017-04-08T11:10:16.640Z,14.40
2017-04-08T11:11:14.497Z,18.49
2017-04-08T11:12:12.294Z,22.27
2017-04-08T11:13:10.818Z,17.24
2017-04-08T11:14:08.621Z,16.61
2017-04-08T11:15:06.397Z,17.07
2017-04-08T11:16:04.225Z,17.97
2017-04-08T11:17:02.003Z,14.36
2017-04-08T11:17:59.785Z,16.46
2017-04-08T11:18:57.565Z,13.29
2017-04-08T11:19:56.041Z,7.30
2017-04-08T11:20:53.908Z,6.19
2017-04-08T11:21:51.713Z,16.16
2017-04-08T11:22:49.489Z,15.71
2017-04-08T11:23:47.305Z,15.66
2017-04-08T11:24:45.082Z,16.39
2017-04-08T11:25:42.853Z,17.00
2017-04-08T11:26:40.693Z,15.67
2017-04-08T11:27:38.501Z,8.00
2017-04-08T11:28:37.054Z,15.39
2017-04-08T11:29:34.858Z,14.20
2017-04-08T11:30:32.661Z,14.86
2017-04-08T11:31:30.501Z,17.49
2017-04-08T11:32:28.972Z,16.99
2017-04-08T11:33:26.801Z,17.39
2017-04-08T11:34:24.576Z,17.89
2017-04-08T11:35:22.391Z,17.33
2017-04-08T11:36:20.182Z,17.76
2017-04-08T11:37:18.487Z,18.54
2017-04-08T11:38:17.029Z,5.04
2017-04-08T11:39:14.814Z,11.73
2017-04-08T11:40:12.613Z,4.41
2017-04-08T11:41:10.454Z,5.67
2017-04-08T11:42:08.305Z,5.53
2017-04-08T11:43:06.104Z,15.27
2017-04-08T11:44:03.893Z,15.47
2017-04-08T11:45:02.434Z,15.04
2017-04-08T11:46:00.233Z,7.90
2017-04-08T11:46:58.769Z,9.46
2017-04-08T11:47:56.557Z,14.69
2017-04-08T11:48:55.077Z,15.21
2017-04-08T11:49:52.854Z,8.37
2017-04-08T11:50:50.637Z,8.01
2017-04-08T11:51:49.225Z,15.30
2017-04-08T11:52:47.078Z,17.60
2017-04-08T11:53:44.840Z,17.09
2017-04-08T11:54:42.640Z,15.51
2017-04-08T11:55:41.178Z,17.10
2017-04-08T11:56:39.006Z,12.93
2017-04-08T11:57:37.534Z,16.61
2017-04-08T11:58:35.325Z,17.04
2017-04-08T11:59:33.126Z,16.79
2017-04-08T12:00:31.030Z,17.00
2017-04-08T12:01:29.613Z,16.11
2017-04-08T12:02:27.514Z,11.70
2017-04-08T12:03:25.459Z,16.83
2017-04-08T12:04:23.241Z,14.74
2017-04-08T12:05:21.094Z,17.49
2017-04-08T12:06:18.933Z,15.51
2017-04-08T12:07:17.388Z,17.14
2017-04-08T12:08:15.322Z,16.73
2017-04-08T12:09:13.850Z,12.87
2017-04-08T12:10:11.631Z,15.93
2017-04-08T12:11:09.435Z,17.14
2017-04-08T12:12:07.333Z,18.99
2017-04-08T12:13:05.157Z,9.90
2017-04-08T12:14:03.012Z,19.24
2017-04-08T12:15:00.826Z,19.99
2017-04-08T12:15:59.372Z,17.94
2017-04-08T12:16:57.197Z,16.96
2017-04-08T12:17:55.009Z,14.84
2017-04-08T12:18:53.524Z,17.87
2017-04-08T12:19:51.319Z,17.30
2017-04-08T12:20:49.105Z,18.99
2017-04-08T12:21:47.637Z,16.54
2017-04-08T12:22:45.626Z,16.97
2017-04-08T12:23:44.165Z,18.04
2017-04-08T12:24:41.962Z,16.49
2017-04-08T12:25:40.532Z,17.07
2017-04-08T12:26:39.071Z,16.66
2017-04-08T12:27:36.860Z,17.14